Airport View

Enter AWOS ICAO identifier for current METAR.

ex. KFNL

KLOT 261155Z AUTO 23004KT 10SM BKN060 20/17 A3005 RMK AO2 60001 70003 T02000167 10222 20179

26 Jun 2019 12:24

Frequency: 118.525

Phone: 815-588-4802

Other Area AWOS: KJOT - KC09 - KMDW - KDPA

TAF KMDW 261135Z 2612/2718 24008KT P6SM FEW050 BKN250 FM262100 10008KT P6SM SCT050 BKN250 FM270000 12007KT P6SM VCTS BKN050CB FM270300 20005KT P6SM FEW050 BKN250